createdAt,value
2018-10-02T00:00:00.607Z,99696.00
2018-10-02T00:02:29.360Z,99705.98
2018-10-02T00:04:57.912Z,99709.77
2018-10-02T00:07:26.434Z,99703.20
2018-10-02T00:09:54.975Z,99693.02
2018-10-02T00:12:28.786Z,99699.13
2018-10-02T00:14:57.319Z,99701.44
2018-10-02T00:17:25.850Z,99695.55
2018-10-02T00:19:54.492Z,99699.16
2018-10-02T00:22:23.143Z,99693.38
2018-10-02T00:24:51.809Z,99696.63
2018-10-02T00:27:20.345Z,99696.97
2018-10-02T00:29:48.890Z,99696.08
2018-10-02T00:32:17.541Z,99698.45
2018-10-02T00:34:46.206Z,99699.47
2018-10-02T00:37:14.793Z,99706.20
2018-10-02T00:39:43.569Z,99706.87
2018-10-02T00:42:12.253Z,99709.68
2018-10-02T00:44:40.906Z,99718.30
2018-10-02T00:47:09.675Z,99723.38
2018-10-02T00:49:38.285Z,99727.55
2018-10-02T00:52:06.867Z,99726.35
2018-10-02T00:54:35.758Z,99725.49
2018-10-02T00:57:04.426Z,99723.41
2018-10-02T00:59:33.294Z,99729.84
2018-10-02T01:02:01.946Z,99723.08
2018-10-02T01:04:30.629Z,99727.62
2018-10-02T01:06:59.469Z,99728.55
2018-10-02T01:09:28.109Z,99727.22
2018-10-02T01:11:56.722Z,99720.38
2018-10-02T01:14:25.709Z,99724.13
2018-10-02T01:16:54.313Z,99725.91
2018-10-02T01:19:23.015Z,99731.34
2018-10-02T01:21:51.844Z,99726.87
2018-10-02T01:24:20.966Z,99736.36
2018-10-02T01:26:49.513Z,99733.41
2018-10-02T01:29:18.240Z,99738.05
2018-10-02T01:31:46.805Z,99730.62
2018-10-02T01:34:15.776Z,99734.04
2018-10-02T01:36:44.442Z,99732.82
2018-10-02T01:39:13.097Z,99734.09
2018-10-02T01:41:41.657Z,99733.27
2018-10-02T01:44:10.215Z,99738.66
2018-10-02T01:46:38.776Z,99740.52
2018-10-02T01:49:07.382Z,99733.43
2018-10-02T01:51:36.236Z,99740.61
2018-10-02T01:54:05.245Z,99739.19
2018-10-02T01:56:33.863Z,99744.98
2018-10-02T01:59:02.390Z,99749.81
2018-10-02T02:01:31.095Z,99755.46
2018-10-02T02:03:59.705Z,99755.31
2018-10-02T02:06:28.246Z,99752.45
2018-10-02T02:08:56.885Z,99756.58
2018-10-02T02:11:26.627Z,99761.85
2018-10-02T02:13:55.614Z,99760.33
2018-10-02T02:16:24.910Z,99760.47
2018-10-02T02:18:53.463Z,99753.60
2018-10-02T02:21:21.998Z,99765.78
2018-10-02T02:23:50.538Z,99769.31
2018-10-02T02:26:19.120Z,99776.27
2018-10-02T02:28:47.662Z,99770.91
2018-10-02T02:31:16.325Z,99774.11
2018-10-02T02:33:44.910Z,99775.95
2018-10-02T02:36:13.474Z,99774.20
2018-10-02T02:38:42.078Z,99772.41
2018-10-02T02:41:10.990Z,99775.54
2018-10-02T02:43:39.522Z,99785.63
2018-10-02T02:46:08.213Z,99784.22
2018-10-02T02:48:42.122Z,99784.73
2018-10-02T02:51:15.963Z,99784.68
2018-10-02T02:53:44.551Z,99787.00
2018-10-02T02:56:13.157Z,99781.57
2018-10-02T02:58:41.721Z,99782.61
2018-10-02T03:01:10.273Z,99779.85
2018-10-02T03:03:38.849Z,99792.28
2018-10-02T03:06:07.513Z,99792.50
2018-10-02T03:08:36.179Z,99789.66
2018-10-02T03:11:04.752Z,99791.52
2018-10-02T03:13:33.302Z,99796.86
2018-10-02T03:16:01.853Z,99797.09
2018-10-02T03:18:30.661Z,99799.36
2018-10-02T03:20:59.277Z,99810.09
2018-10-02T03:23:27.935Z,99811.94
2018-10-02T03:25:56.566Z,99817.00
2018-10-02T03:28:25.154Z,99812.86
2018-10-02T03:30:53.723Z,99819.33
2018-10-02T03:33:22.330Z,99815.75
2018-10-02T03:35:50.966Z,99823.03
2018-10-02T03:38:19.575Z,99824.80
2018-10-02T03:40:48.244Z,99826.44
2018-10-02T03:43:16.794Z,99832.52
2018-10-02T03:45:45.402Z,99822.44
2018-10-02T03:48:13.945Z,99823.17
2018-10-02T03:50:42.491Z,99828.82
2018-10-02T03:53:11.038Z,99826.14
2018-10-02T03:55:40.603Z,99832.52
2018-10-02T03:58:09.252Z,99832.91
2018-10-02T04:00:37.992Z,99838.47
2018-10-02T04:03:06.582Z,99841.27
2018-10-02T04:05:35.235Z,99839.92
2018-10-02T04:08:03.767Z,99839.29
2018-10-02T04:10:32.345Z,99845.27
2018-10-02T04:13:00.911Z,99843.42
2018-10-02T04:15:30.230Z,99849.98
2018-10-02T04:17:58.836Z,99859.02
2018-10-02T04:20:27.426Z,99855.66
2018-10-02T04:22:56.113Z,99858.63
2018-10-02T04:25:24.664Z,99856.17
2018-10-02T04:27:53.425Z,99866.22
2018-10-02T04:30:22.167Z,99857.59
2018-10-02T04:32:50.898Z,99862.73
2018-10-02T04:35:19.567Z,99867.34
2018-10-02T04:37:48.186Z,99867.64
2018-10-02T04:40:16.766Z,99869.49
2018-10-02T04:42:45.354Z,99869.19
2018-10-02T04:45:13.905Z,99877.51
2018-10-02T04:47:42.505Z,99879.78
2018-10-02T04:50:11.177Z,99878.11
2018-10-02T04:52:39.847Z,99880.78
2018-10-02T04:55:08.514Z,99880.81
2018-10-02T04:57:37.053Z,99878.75
2018-10-02T05:00:06.279Z,99890.77
2018-10-02T05:02:34.850Z,99887.89
2018-10-02T05:05:03.438Z,99887.59
2018-10-02T05:07:32.006Z,99891.29
2018-10-02T05:10:00.748Z,99895.99
2018-10-02T05:12:29.481Z,99896.72
2018-10-02T05:14:58.141Z,99903.01
2018-10-02T05:17:26.688Z,99907.32
2018-10-02T05:19:55.240Z,99906.28
2018-10-02T05:22:23.865Z,99908.14
2018-10-02T05:24:52.512Z,99911.54
2018-10-02T05:27:21.244Z,99920.46
2018-10-02T05:29:49.995Z,99916.45
2018-10-02T05:32:18.607Z,99920.46
2018-10-02T05:34:47.140Z,99923.56
2018-10-02T05:37:15.725Z,99929.52
2018-10-02T05:39:44.266Z,99936.92
2018-10-02T05:42:12.931Z,99930.85
2018-10-02T05:44:41.560Z,99932.06
2018-10-02T05:47:10.166Z,99935.38
2018-10-02T05:49:39.437Z,99940.72
2018-10-02T05:52:08.004Z,99938.64
2018-10-02T05:54:37.138Z,99950.15
2018-10-02T05:57:05.654Z,99947.48
2018-10-02T05:59:34.207Z,99947.39
2018-10-02T06:02:03.190Z,99955.83
2018-10-02T06:04:31.988Z,99955.19
2018-10-02T06:07:00.865Z,99964.54
2018-10-02T06:09:29.432Z,99963.20
2018-10-02T06:11:58.006Z,99961.95
2018-10-02T06:14:26.584Z,99967.91
2018-10-02T06:16:55.174Z,99968.75
2018-10-02T06:19:24.052Z,99970.58
2018-10-02T06:21:52.703Z,99970.70
2018-10-02T06:24:21.269Z,99976.38
2018-10-02T06:26:49.923Z,99976.25
2018-10-02T06:29:18.599Z,99978.53
2018-10-02T06:31:47.328Z,99976.13
2018-10-02T06:34:16.066Z,99982.55
2018-10-02T06:36:44.835Z,99980.58
2018-10-02T06:39:13.711Z,99984.38
2018-10-02T06:41:42.340Z,99988.27
2018-10-02T06:44:11.194Z,99997.12
2018-10-02T06:46:39.968Z,99992.89
2018-10-02T06:49:08.528Z,99996.30
2018-10-02T06:51:37.158Z,99996.70
2018-10-02T06:54:05.881Z,100001.62
2018-10-02T06:56:34.621Z,100002.44
2018-10-02T06:59:03.358Z,100000.05
2018-10-02T07:01:31.914Z,99999.78
2018-10-02T07:04:00.518Z,100008.18
2018-10-02T07:06:29.389Z,100012.18
2018-10-02T07:08:58.002Z,100006.51
2018-10-02T07:11:26.710Z,100008.23
2018-10-02T07:13:55.357Z,100013.78
2018-10-02T07:16:24.045Z,100013.70
2018-10-02T07:18:52.821Z,100015.19
2018-10-02T07:21:21.375Z,100014.97
2018-10-02T07:23:49.946Z,100014.91
2018-10-02T07:26:18.519Z,100012.80
2018-10-02T07:28:47.144Z,100020.69
2018-10-02T07:31:15.760Z,100019.20
2018-10-02T07:33:44.800Z,100012.05
2018-10-02T07:36:13.502Z,100021.25
2018-10-02T07:38:42.198Z,100015.63
2018-10-02T07:41:10.878Z,100015.38
2018-10-02T07:43:39.486Z,100027.17
2018-10-02T07:46:08.590Z,100023.00
2018-10-02T07:48:37.850Z,100032.24
2018-10-02T07:51:07.543Z,100039.05
2018-10-02T07:53:36.540Z,100032.55
2018-10-02T07:56:05.397Z,100035.00
2018-10-02T07:58:34.113Z,100035.34
2018-10-02T08:01:02.688Z,100041.09
2018-10-02T08:03:31.234Z,100041.75
2018-10-02T08:05:59.945Z,100045.17
2018-10-02T08:08:28.879Z,100052.28
2018-10-02T08:10:57.778Z,100048.67
2018-10-02T08:13:26.494Z,100044.73
2018-10-02T08:15:55.315Z,100045.59
2018-10-02T08:18:23.978Z,100044.34
2018-10-02T08:20:52.824Z,100049.41
2018-10-02T08:23:21.564Z,100051.86
2018-10-02T08:25:51.885Z,100052.95
2018-10-02T08:28:21.746Z,100059.37
2018-10-02T08:30:51.358Z,100058.75
2018-10-02T08:33:19.969Z,100056.91
2018-10-02T08:35:48.736Z,100059.64
2018-10-02T08:38:18.329Z,100055.72
2018-10-02T08:40:46.989Z,100058.52
2018-10-02T08:43:15.814Z,100055.09
2018-10-02T08:45:44.520Z,100049.80
2018-10-02T08:48:13.133Z,100063.62
2018-10-02T08:50:41.806Z,100056.27
2018-10-02T08:53:10.485Z,100065.53
2018-10-02T08:55:39.268Z,100055.70
2018-10-02T08:58:08.191Z,100056.82
2018-10-02T09:00:37.514Z,100051.53
2018-10-02T09:03:06.639Z,100043.81
2018-10-02T09:05:35.430Z,100046.54
2018-10-02T09:08:04.249Z,100049.33
2018-10-02T09:10:32.899Z,100054.30
2018-10-02T09:13:02.086Z,100058.70
2018-10-02T09:15:30.801Z,100055.48
2018-10-02T09:17:59.662Z,100056.98
2018-10-02T09:20:28.486Z,100053.31
2018-10-02T09:22:57.051Z,100053.27
2018-10-02T09:25:25.625Z,100057.77
2018-10-02T09:27:54.402Z,100049.94
2018-10-02T09:30:28.529Z,100059.25
2018-10-02T09:33:02.456Z,100052.16
2018-10-02T09:35:36.268Z,100048.83
2018-10-02T09:38:10.190Z,100043.42
2018-10-02T09:40:44.817Z,100045.11
2018-10-02T09:43:18.918Z,100046.31
2018-10-02T09:45:47.566Z,100042.05
2018-10-02T09:48:16.226Z,100042.34
2018-10-02T09:50:44.942Z,100032.09
2018-10-02T09:53:13.653Z,100030.75
2018-10-02T09:55:42.381Z,100029.16
2018-10-02T09:58:11.286Z,100035.34
2018-10-02T10:00:45.328Z,100030.98
2018-10-02T10:03:14.648Z,100031.70
2018-10-02T10:05:43.221Z,100030.78
2018-10-02T10:08:11.845Z,100025.38
2018-10-02T10:10:40.611Z,100023.64
2018-10-02T10:13:09.432Z,100026.49
2018-10-02T10:15:38.080Z,100025.28
2018-10-02T10:18:07.332Z,100025.42
2018-10-02T10:20:36.560Z,100030.78
2018-10-02T10:23:05.217Z,100022.69
2018-10-02T10:25:33.947Z,100022.77
2018-10-02T10:28:02.550Z,100015.69
2018-10-02T10:30:31.902Z,100020.39
2018-10-02T10:33:00.546Z,100019.26
2018-10-02T10:35:29.171Z,100023.06
2018-10-02T10:37:57.781Z,100016.58
2018-10-02T10:40:26.592Z,100013.47
2018-10-02T10:42:55.134Z,100014.91
2018-10-02T10:45:23.691Z,100019.39
2018-10-02T10:47:52.412Z,100015.30
2018-10-02T10:50:20.996Z,100014.24
2018-10-02T10:52:49.541Z,100009.69
2018-10-02T10:55:33.633Z,100011.61
2018-10-02T10:58:02.295Z,100000.87
2018-10-02T11:00:30.945Z,99998.63
2018-10-02T11:02:59.513Z,99996.19
2018-10-02T11:05:28.274Z,99979.84
2018-10-02T11:07:56.831Z,99976.80
2018-10-02T11:10:25.393Z,99971.84
2018-10-02T11:12:54.036Z,99971.89
2018-10-02T11:15:23.363Z,99973.77
2018-10-02T11:17:52.251Z,99968.66
2018-10-02T11:20:25.286Z,99968.64
2018-10-02T11:22:54.078Z,99975.16
2018-10-02T11:25:22.802Z,99971.27
2018-10-02T11:27:51.614Z,99970.89
2018-10-02T11:30:20.201Z,99968.84
2018-10-02T11:32:48.749Z,99959.44
2018-10-02T11:35:17.327Z,99958.41
2018-10-02T11:37:46.219Z,99961.27
2018-10-02T11:40:14.949Z,99955.06
2018-10-02T11:42:43.642Z,99950.72
2018-10-02T11:45:12.303Z,99950.64
2018-10-02T11:47:40.867Z,99947.72
2018-10-02T11:50:09.487Z,99947.28
2018-10-02T11:52:38.138Z,99945.27
2018-10-02T11:55:07.104Z,99941.68
2018-10-02T11:57:35.836Z,99933.77
2018-10-02T12:00:05.047Z,99934.34
2018-10-02T12:02:33.808Z,99938.83
2018-10-02T12:05:02.674Z,99939.00
2018-10-02T12:07:31.222Z,99929.38
2018-10-02T12:09:59.773Z,99932.17
2018-10-02T12:12:28.338Z,99932.55
2018-10-02T12:14:56.993Z,99927.66
2018-10-02T12:17:25.713Z,99927.70
2018-10-02T12:19:54.856Z,99925.05
2018-10-02T12:22:23.473Z,99920.72
2018-10-02T12:24:52.017Z,99911.39
2018-10-02T12:27:20.636Z,99907.92
2018-10-02T12:29:49.178Z,99908.70
2018-10-02T12:32:17.727Z,99891.13
2018-10-02T12:34:46.409Z,99894.43
2018-10-02T12:37:15.058Z,99894.64
2018-10-02T12:39:43.942Z,99899.50
2018-10-02T12:42:13.185Z,99894.86
2018-10-02T12:44:41.832Z,99889.55
2018-10-02T12:47:10.367Z,99889.29
2018-10-02T12:49:39.105Z,99888.36
2018-10-02T12:52:07.789Z,99878.23
2018-10-02T12:54:37.007Z,99880.30
2018-10-02T12:57:05.742Z,99864.77
2018-10-02T12:59:34.513Z,99862.02
2018-10-02T13:02:03.037Z,99852.77
2018-10-02T13:04:31.629Z,99842.84
2018-10-02T13:07:00.336Z,99834.17
2018-10-02T13:09:29.093Z,99838.14
2018-10-02T13:11:57.980Z,99832.59
2018-10-02T13:14:26.774Z,99835.31
2018-10-02T13:16:55.633Z,99827.38
2018-10-02T13:19:24.486Z,99821.52
2018-10-02T13:21:53.127Z,99822.22
2018-10-02T13:24:21.781Z,99818.67
2018-10-02T13:26:50.605Z,99821.94
2018-10-02T13:29:19.567Z,99826.59
2018-10-02T13:31:48.117Z,99822.47
2018-10-02T13:34:17.207Z,99825.54
2018-10-02T13:36:45.862Z,99821.06
2018-10-02T13:39:14.410Z,99816.63
2018-10-02T13:41:43.197Z,99811.44
2018-10-02T13:44:11.940Z,99805.81
2018-10-02T13:46:40.570Z,99797.13
2018-10-02T13:49:09.141Z,99807.80
2018-10-02T13:51:37.895Z,99796.86
2018-10-02T13:54:06.795Z,99802.07
2018-10-02T13:56:35.454Z,99805.39
2018-10-02T13:59:04.358Z,99797.50
2018-10-02T14:01:33.026Z,99788.94
2018-10-02T14:04:02.186Z,99787.20
2018-10-02T14:06:30.917Z,99782.55
2018-10-02T14:08:59.582Z,99777.20
2018-10-02T14:11:28.307Z,99774.67
2018-10-02T14:13:57.321Z,99779.72
2018-10-02T14:16:26.054Z,99777.51
2018-10-02T14:18:55.452Z,99767.25
2018-10-02T14:21:24.173Z,99761.98
2018-10-02T14:23:53.676Z,99757.19
2018-10-02T14:26:22.217Z,99759.73
2018-10-02T14:28:50.849Z,99753.89
2018-10-02T14:31:20.142Z,99747.27
2018-10-02T14:33:48.898Z,99751.22
2018-10-02T14:36:17.525Z,99757.80
2018-10-02T14:38:46.101Z,99759.22
2018-10-02T14:41:14.648Z,99757.63
2018-10-02T14:43:43.183Z,99758.00
2018-10-02T14:46:11.766Z,99757.61
2018-10-02T14:48:42.221Z,99744.70
2018-10-02T14:51:10.883Z,99742.79
2018-10-02T14:53:39.629Z,99732.03
2018-10-02T14:56:08.302Z,99718.59
2018-10-02T14:58:36.933Z,99717.15
2018-10-02T15:01:05.478Z,99727.25
2018-10-02T15:03:34.028Z,99719.34
2018-10-02T15:06:02.581Z,99721.61
2018-10-02T15:08:31.137Z,99716.39
2018-10-02T15:10:59.848Z,99720.62
2018-10-02T15:13:28.427Z,99721.49
2018-10-02T15:15:57.047Z,99712.44
2018-10-02T15:18:25.597Z,99708.95
2018-10-02T15:20:54.511Z,99712.20
2018-10-02T15:23:23.453Z,99719.13
2018-10-02T15:25:52.058Z,99717.25
2018-10-02T15:28:20.729Z,99714.28
2018-10-02T15:30:49.402Z,99712.89
2018-10-02T15:33:17.990Z,99709.77
2018-10-02T15:35:46.629Z,99710.25
2018-10-02T15:38:15.170Z,99713.58
2018-10-02T15:40:43.743Z,99713.47
2018-10-02T15:43:12.414Z,99703.83
2018-10-02T15:45:43.199Z,99703.97
2018-10-02T15:48:11.880Z,99691.70
2018-10-02T15:50:40.539Z,99696.14
2018-10-02T15:53:09.346Z,99697.52
2018-10-02T15:55:37.963Z,99681.51
2018-10-02T15:58:06.602Z,99682.81
2018-10-02T16:00:35.548Z,99683.56
2018-10-02T16:03:04.242Z,99671.47
2018-10-02T16:05:32.921Z,99676.67
2018-10-02T16:08:01.626Z,99668.57
2018-10-02T16:10:30.282Z,99661.52
2018-10-02T16:12:58.964Z,99662.17
2018-10-02T16:15:28.300Z,99656.02
2018-10-02T16:17:56.896Z,99660.43
2018-10-02T16:20:25.604Z,99655.44
2018-10-02T16:22:54.224Z,99659.59
2018-10-02T16:25:23.031Z,99658.77
2018-10-02T16:27:51.679Z,99657.05
2018-10-02T16:30:20.468Z,99658.02
2018-10-02T16:32:49.037Z,99652.50
2018-10-02T16:35:17.754Z,99647.38
2018-10-02T16:37:46.437Z,99651.00
2018-10-02T16:40:15.343Z,99651.67
2018-10-02T16:42:43.935Z,99653.77
2018-10-02T16:45:12.699Z,99658.95
2018-10-02T16:47:41.281Z,99651.59
2018-10-02T16:50:09.964Z,99649.50
2018-10-02T16:52:39.025Z,99653.86
2018-10-02T16:55:07.752Z,99651.88
2018-10-02T16:57:37.317Z,99653.22
2018-10-02T17:00:06.326Z,99650.38
2018-10-02T17:02:34.957Z,99651.50
2018-10-02T17:05:03.718Z,99649.64
2018-10-02T17:07:32.481Z,99651.42
2018-10-02T17:10:01.099Z,99644.22
2018-10-02T17:12:29.678Z,99643.52
2018-10-02T17:14:58.413Z,99637.51
2018-10-02T17:17:27.004Z,99631.47
2018-10-02T17:19:55.622Z,99627.68
2018-10-02T17:22:24.244Z,99623.96
2018-10-02T17:24:53.008Z,99624.34
2018-10-02T17:27:21.637Z,99625.21
2018-10-02T17:29:50.323Z,99622.23
2018-10-02T17:32:18.918Z,99630.61
2018-10-02T17:34:47.500Z,99628.92
2018-10-02T17:37:16.114Z,99625.28
2018-10-02T17:39:44.792Z,99632.78
2018-10-02T17:42:13.686Z,99622.91
2018-10-02T17:44:42.339Z,99620.68
2018-10-02T17:47:11.050Z,99622.98
2018-10-02T17:49:39.590Z,99621.27
2018-10-02T17:52:08.935Z,99619.41
2018-10-02T17:54:37.516Z,99622.71
2018-10-02T17:57:06.134Z,99622.02
2018-10-02T17:59:34.821Z,99621.55
2018-10-02T18:02:03.782Z,99628.38
2018-10-02T18:04:32.403Z,99623.05
2018-10-02T18:07:01.024Z,99618.99
2018-10-02T18:09:29.615Z,99620.75
2018-10-02T18:11:58.225Z,99616.31
2018-10-02T18:14:26.834Z,99615.05
2018-10-02T18:16:55.487Z,99614.59
2018-10-02T18:19:24.145Z,99614.53
2018-10-02T18:21:52.699Z,99618.99
2018-10-02T18:24:21.268Z,99612.15
2018-10-02T18:26:49.853Z,99617.43
2018-10-02T18:29:18.480Z,99605.46
2018-10-02T18:31:47.371Z,99607.39
2018-10-02T18:34:16.302Z,99599.81
2018-10-02T18:36:44.994Z,99598.77
2018-10-02T18:39:13.690Z,99595.35
2018-10-02T18:41:42.385Z,99592.98
2018-10-02T18:44:11.013Z,99588.52
2018-10-02T18:46:39.624Z,99585.84
2018-10-02T18:49:08.682Z,99589.58
2018-10-02T18:51:37.880Z,99589.58
2018-10-02T18:54:06.992Z,99590.63
2018-10-02T18:56:35.977Z,99583.84
2018-10-02T18:59:04.744Z,99580.51
2018-10-02T19:01:33.357Z,99578.72
2018-10-02T19:04:02.650Z,99581.98
2018-10-02T19:06:31.600Z,99581.33
2018-10-02T19:09:05.291Z,99574.13
2018-10-02T19:11:39.149Z,99569.65
2018-10-02T19:14:07.877Z,99573.66
2018-10-02T19:16:36.697Z,99568.11
2018-10-02T19:19:05.356Z,99555.25
2018-10-02T19:21:33.950Z,99563.28
2018-10-02T19:24:02.540Z,99555.68
2018-10-02T19:26:31.300Z,99550.39
2018-10-02T19:28:59.870Z,99542.98
2018-10-02T19:31:33.614Z,99536.36
2018-10-02T19:34:02.207Z,99533.45
2018-10-02T19:36:30.767Z,99536.00
2018-10-02T19:39:01.251Z,99535.19
2018-10-02T19:41:30.327Z,99529.31
2018-10-02T19:43:59.117Z,99526.54
2018-10-02T19:46:31.829Z,99529.51
2018-10-02T19:49:00.413Z,99527.59
2018-10-02T19:51:34.294Z,99529.45
2018-10-02T19:54:02.886Z,99526.25
2018-10-02T19:56:31.414Z,99530.84
2018-10-02T19:59:00.026Z,99526.54
2018-10-02T20:01:28.768Z,99520.37
2018-10-02T20:03:57.410Z,99526.12
2018-10-02T20:06:26.010Z,99522.98
2018-10-02T20:08:54.635Z,99523.73
2018-10-02T20:11:23.207Z,99516.88
2018-10-02T20:13:51.796Z,99521.78
2018-10-02T20:16:20.622Z,99515.09
2018-10-02T20:18:49.509Z,99513.03
2018-10-02T20:21:18.193Z,99510.26
2018-10-02T20:23:46.952Z,99514.27
2018-10-02T20:26:15.574Z,99519.56
2018-10-02T20:28:44.153Z,99515.55
2018-10-02T20:31:12.758Z,99515.54
2018-10-02T20:33:41.312Z,99518.66
2018-10-02T20:36:10.032Z,99512.84
2018-10-02T20:38:38.662Z,99505.40
2018-10-02T20:41:07.227Z,99508.23
2018-10-02T20:43:35.994Z,99508.05
2018-10-02T20:46:04.588Z,99503.73
2018-10-02T20:48:33.131Z,99505.59
2018-10-02T20:51:01.792Z,99509.66
2018-10-02T20:53:30.448Z,99505.95
2018-10-02T20:55:59.195Z,99504.32
2018-10-02T20:58:27.759Z,99505.95
2018-10-02T21:00:56.366Z,99498.56
2018-10-02T21:03:24.909Z,99493.51
2018-10-02T21:05:53.458Z,99493.51
2018-10-02T21:08:22.100Z,99486.36
2018-10-02T21:10:50.733Z,99492.52
2018-10-02T21:13:19.330Z,99481.23
2018-10-02T21:15:47.897Z,99490.95
2018-10-02T21:18:16.494Z,99489.80
2018-10-02T21:20:45.068Z,99485.34
2018-10-02T21:23:13.615Z,99485.04
2018-10-02T21:25:42.830Z,99483.41
2018-10-02T21:28:11.494Z,99480.58
2018-10-02T21:30:40.962Z,99485.70
2018-10-02T21:33:09.648Z,99479.40
2018-10-02T21:35:38.202Z,99479.23
2018-10-02T21:38:06.806Z,99480.94
2018-10-02T21:40:35.460Z,99489.23
2018-10-02T21:43:04.046Z,99490.48
2018-10-02T21:45:33.046Z,99491.97
2018-10-02T21:48:01.838Z,99486.11
2018-10-02T21:50:30.447Z,99493.31
2018-10-02T21:52:59.862Z,99497.14
2018-10-02T21:55:28.397Z,99490.44
2018-10-02T21:57:56.990Z,99494.11
2018-10-02T22:00:26.030Z,99499.39
2018-10-02T22:02:54.859Z,99496.98
2018-10-02T22:05:24.182Z,99490.63
2018-10-02T22:07:52.890Z,99492.59
2018-10-02T22:10:21.557Z,99494.47
2018-10-02T22:12:50.322Z,99492.73
2018-10-02T22:15:19.006Z,99484.98
2018-10-02T22:17:47.776Z,99487.53
2018-10-02T22:20:16.337Z,99492.57
2018-10-02T22:22:44.872Z,99488.49
2018-10-02T22:25:13.809Z,99483.89
2018-10-02T22:27:43.106Z,99484.00
2018-10-02T22:30:13.134Z,99478.80
2018-10-02T22:32:43.186Z,99486.31
2018-10-02T22:35:12.087Z,99494.02
2018-10-02T22:37:40.742Z,99499.48
2018-10-02T22:40:09.702Z,99489.71
2018-10-02T22:42:38.333Z,99485.11
2018-10-02T22:45:06.888Z,99488.81
2018-10-02T22:47:35.623Z,99484.70
2018-10-02T22:50:04.467Z,99482.33
2018-10-02T22:52:33.267Z,99480.61
2018-10-02T22:55:02.046Z,99483.66
2018-10-02T22:57:31.370Z,99482.55
2018-10-02T23:00:00.133Z,99482.77
2018-10-02T23:02:28.715Z,99482.77
2018-10-02T23:04:58.398Z,99485.75
2018-10-02T23:07:26.981Z,99490.09
2018-10-02T23:09:55.728Z,99486.98
2018-10-02T23:12:25.105Z,99490.69
2018-10-02T23:14:53.983Z,99479.50
2018-10-02T23:17:22.601Z,99487.94
2018-10-02T23:19:51.184Z,99488.23
2018-10-02T23:22:19.761Z,99493.66
2018-10-02T23:24:48.346Z,99503.80
2018-10-02T23:27:16.982Z,99509.66
2018-10-02T23:29:46.265Z,99508.41
2018-10-02T23:32:16.594Z,99507.08
2018-10-02T23:34:45.274Z,99504.82
2018-10-02T23:37:14.002Z,99498.04
2018-10-02T23:39:43.022Z,99501.44
2018-10-02T23:42:11.636Z,99499.07
2018-10-02T23:44:40.241Z,99508.30
2018-10-02T23:47:08.822Z,99503.05
2018-10-02T23:49:37.410Z,99495.95
2018-10-02T23:52:06.903Z,99496.14
2018-10-02T23:54:36.085Z,99492.44
2018-10-02T23:57:04.827Z,99496.88
2018-10-02T23:59:33.495Z,99503.03
